createdAt,value
2019-01-25T00:00:04.189Z,-3.19
2019-01-25T00:01:13.375Z,-3.2
2019-01-25T00:02:23.049Z,-3.17
2019-01-25T00:03:32.983Z,-3.19
2019-01-25T00:04:42.436Z,-3.23
2019-01-25T00:05:52.377Z,-3.22
2019-01-25T00:07:02.064Z,-3.17
2019-01-25T00:08:11.996Z,-3.17
2019-01-25T00:09:21.675Z,-3.22
2019-01-25T00:10:31.609Z,-3.2
2019-01-25T00:11:41.563Z,-3.22
2019-01-25T00:12:51.523Z,-3.14
2019-01-25T00:14:00.964Z,-3.12
2019-01-25T00:15:10.920Z,-3.19
2019-01-25T00:16:20.869Z,-3.22
2019-01-25T00:17:30.812Z,-3.15
2019-01-25T00:18:40.761Z,-3.14
2019-01-25T00:19:50.707Z,-3.17
2019-01-25T00:21:00.794Z,-3.19
2019-01-25T00:22:10.485Z,-3.17
2019-01-25T00:23:20.476Z,-3.17
2019-01-25T00:24:30.216Z,-3.2
2019-01-25T00:25:39.661Z,-3.27
2019-01-25T00:26:49.617Z,-3.23
2019-01-25T00:27:59.561Z,-3.4
2019-01-25T00:29:09.251Z,-3.41
2019-01-25T00:30:18.962Z,-3.4
2019-01-25T00:31:28.909Z,-3.32
2019-01-25T00:32:40.211Z,-3.51
2019-01-25T00:33:50.152Z,-3.5
2019-01-25T00:34:59.845Z,-3.5
2019-01-25T00:36:09.562Z,-3.47
2019-01-25T00:37:19.598Z,-3.44
2019-01-25T00:38:29.534Z,-3.44
2019-01-25T00:39:39.471Z,-3.44
2019-01-25T00:40:49.401Z,-3.44
2019-01-25T00:41:59.330Z,-3.44
2019-01-25T00:43:09.025Z,-3.5
2019-01-25T00:44:18.966Z,-3.48
2019-01-25T00:45:28.672Z,-3.47
2019-01-25T00:46:38.614Z,-3.4
2019-01-25T00:47:48.302Z,-3.55
2019-01-25T00:48:58.793Z,-3.51
2019-01-25T00:50:08.727Z,-3.32
2019-01-25T00:51:18.417Z,-3.32
2019-01-25T00:52:28.107Z,-3.38
2019-01-25T00:53:38.045Z,-3.32
2019-01-25T00:54:47.983Z,-3.37
2019-01-25T00:55:57.659Z,-3.29
2019-01-25T00:57:07.603Z,-3.29
2019-01-25T00:58:17.411Z,-3.29
2019-01-25T00:59:27.136Z,-3.26
2019-01-25T01:00:37.065Z,-3.26
2019-01-25T01:01:46.755Z,-3.23
2019-01-25T01:02:56.702Z,-3.23
2019-01-25T01:04:06.402Z,-3.2
2019-01-25T01:05:16.114Z,-3.19
2019-01-25T01:06:26.048Z,-3.17
2019-01-25T01:07:35.981Z,-3.17
2019-01-25T01:08:45.919Z,-3.2
2019-01-25T01:09:55.608Z,-3.19
2019-01-25T01:11:05.388Z,-3.07
2019-01-25T01:12:15.349Z,-3.05
2019-01-25T01:13:25.038Z,-3.01
2019-01-25T01:14:34.963Z,-3.07
2019-01-25T01:15:44.651Z,-3.01
2019-01-25T01:16:54.581Z,-2.99
2019-01-25T01:18:04.519Z,-2.96
2019-01-25T01:19:13.961Z,-2.99
2019-01-25T01:20:23.891Z,-3.01
2019-01-25T01:21:33.837Z,-3.01
2019-01-25T01:22:43.782Z,-2.96
2019-01-25T01:23:53.469Z,-2.98
2019-01-25T01:25:03.395Z,-2.98
2019-01-25T01:26:13.344Z,-2.94
2019-01-25T01:27:22.795Z,-2.91
2019-01-25T01:28:32.729Z,-2.93
2019-01-25T01:29:42.669Z,-2.87
2019-01-25T01:30:52.349Z,-2.96
2019-01-25T01:32:02.287Z,-2.98
2019-01-25T01:33:11.978Z,-3.01
2019-01-25T01:34:21.656Z,-2.91
2019-01-25T01:35:31.330Z,-3.01
2019-01-25T01:36:41.265Z,-2.93
2019-01-25T01:37:50.688Z,-2.93
2019-01-25T01:39:00.622Z,-2.99
2019-01-25T01:40:10.298Z,-2.9
2019-01-25T01:41:26.657Z,-2.98
2019-01-25T01:42:36.580Z,-2.91
2019-01-25T01:43:46.508Z,-2.98
2019-01-25T01:44:56.003Z,-2.93
2019-01-25T01:46:05.700Z,-2.99
2019-01-25T01:47:17.371Z,-2.98
2019-01-25T01:48:27.208Z,-2.93
2019-01-25T01:49:36.904Z,-2.87
2019-01-25T01:50:46.392Z,-3.01
2019-01-25T01:51:56.319Z,-2.94
2019-01-25T01:53:06.244Z,-2.93
2019-01-25T01:54:16.218Z,-2.91
2019-01-25T01:55:26.140Z,-2.91
2019-01-25T01:56:36.065Z,-2.93
2019-01-25T01:57:45.757Z,-2.9
2019-01-25T01:58:55.448Z,-2.93
2019-01-25T02:00:04.880Z,-2.94
2019-01-25T02:01:14.560Z,-3.01
2019-01-25T02:02:24.493Z,-2.91
2019-01-25T02:03:34.432Z,-2.94
2019-01-25T02:04:44.364Z,-2.99
2019-01-25T02:05:54.793Z,-2.98
2019-01-25T02:07:04.228Z,-2.89
2019-01-25T02:08:13.914Z,-2.94
2019-01-25T02:09:23.346Z,-2.94
2019-01-25T02:10:34.474Z,-2.93
2019-01-25T02:11:44.419Z,-2.87
2019-01-25T02:12:54.338Z,-2.9
2019-01-25T02:14:04.083Z,-2.76
2019-01-25T02:15:13.756Z,-2.84
2019-01-25T02:16:23.680Z,-2.9
2019-01-25T02:17:33.861Z,-2.89
2019-01-25T02:18:43.781Z,-2.83
2019-01-25T02:19:53.712Z,-2.81
2019-01-25T02:21:03.649Z,-2.83
2019-01-25T02:22:13.593Z,-2.89
2019-01-25T02:23:23.288Z,-2.83
2019-01-25T02:24:33.230Z,-2.83
2019-01-25T02:25:43.169Z,-2.8
2019-01-25T02:26:53.096Z,-2.83
2019-01-25T02:28:04.164Z,-2.81
2019-01-25T02:29:14.094Z,-2.81
2019-01-25T02:30:23.286Z,-2.87
2019-01-25T02:31:33.289Z,-2.87
2019-01-25T02:32:42.966Z,-2.78
2019-01-25T02:33:52.656Z,-2.81
2019-01-25T02:35:02.324Z,-2.8
2019-01-25T02:36:12.257Z,-2.8
2019-01-25T02:37:22.204Z,-2.76
2019-01-25T02:38:31.890Z,-2.83
2019-01-25T02:39:41.820Z,-2.86
2019-01-25T02:40:51.520Z,-2.83
2019-01-25T02:42:00.964Z,-2.8
2019-01-25T02:43:10.923Z,-2.8
2019-01-25T02:44:20.634Z,-2.78
2019-01-25T02:45:30.335Z,-2.78
2019-01-25T02:46:40.060Z,-2.75
2019-01-25T02:47:49.734Z,-2.83
2019-01-25T02:48:59.674Z,-2.81
2019-01-25T02:50:09.361Z,-2.81
2019-01-25T02:51:19.055Z,-2.83
2019-01-25T02:52:28.743Z,-2.87
2019-01-25T02:53:38.473Z,-2.84
2019-01-25T02:54:48.395Z,-2.78
2019-01-25T02:55:58.319Z,-2.83
2019-01-25T02:57:08.291Z,-2.81
2019-01-25T02:58:17.999Z,-2.84
2019-01-25T02:59:27.678Z,-2.78
2019-01-25T03:00:37.608Z,-2.84
2019-01-25T03:01:47.035Z,-2.83
2019-01-25T03:02:56.950Z,-2.84
2019-01-25T03:04:06.669Z,-2.81
2019-01-25T03:05:16.142Z,-2.83
2019-01-25T03:06:26.082Z,-2.76
2019-01-25T03:07:35.770Z,-2.89
2019-01-25T03:08:46.644Z,-2.8
2019-01-25T03:09:56.719Z,-2.94
2019-01-25T03:11:06.414Z,-2.99
2019-01-25T03:12:16.372Z,-2.93
2019-01-25T03:13:26.301Z,-2.96
2019-01-25T03:14:36.225Z,-3.02
2019-01-25T03:15:45.899Z,-3.05
2019-01-25T03:16:55.858Z,-2.99
2019-01-25T03:18:05.754Z,-2.98
2019-01-25T03:19:15.684Z,-2.9
2019-01-25T03:20:25.631Z,-2.9
2019-01-25T03:21:35.581Z,-2.84
2019-01-25T03:22:45.282Z,-2.86
2019-01-25T03:23:55.237Z,-2.8
2019-01-25T03:25:05.174Z,-2.78
2019-01-25T03:26:14.874Z,-2.86
2019-01-25T03:27:24.793Z,-2.8
2019-01-25T03:28:34.736Z,-2.81
2019-01-25T03:29:44.675Z,-2.78
2019-01-25T03:30:54.633Z,-2.78
2019-01-25T03:32:04.339Z,-2.81
2019-01-25T03:33:14.450Z,-2.86
2019-01-25T03:34:24.407Z,-2.83
2019-01-25T03:35:34.136Z,-2.78
2019-01-25T03:36:43.838Z,-2.8
2019-01-25T03:37:53.805Z,-2.72
2019-01-25T03:39:03.747Z,-2.8
2019-01-25T03:40:13.661Z,-2.76
2019-01-25T03:41:23.355Z,-2.73
2019-01-25T03:42:33.056Z,-2.78
2019-01-25T03:43:42.502Z,-2.73
2019-01-25T03:44:52.450Z,-2.8
2019-01-25T03:46:02.120Z,-2.72
2019-01-25T03:47:11.650Z,-2.7
2019-01-25T03:48:21.611Z,-2.8
2019-01-25T03:49:31.067Z,-2.75
2019-01-25T03:50:40.766Z,-2.81
2019-01-25T03:51:50.733Z,-2.76
2019-01-25T03:53:00.441Z,-2.81
2019-01-25T03:54:10.142Z,-2.75
2019-01-25T03:55:20.081Z,-2.86
2019-01-25T03:56:30.036Z,-2.73
2019-01-25T03:57:39.960Z,-2.73
2019-01-25T03:58:49.649Z,-2.73
2019-01-25T03:59:59.590Z,-2.76
2019-01-25T04:01:09.528Z,-2.78
2019-01-25T04:02:19.494Z,-2.76
2019-01-25T04:03:29.441Z,-2.73
2019-01-25T04:04:39.146Z,-2.8
2019-01-25T04:05:48.567Z,-2.78
2019-01-25T04:06:58.274Z,-2.81
2019-01-25T04:08:07.950Z,-2.81
2019-01-25T04:09:17.893Z,-2.8
2019-01-25T04:10:27.828Z,-2.76
2019-01-25T04:11:37.506Z,-2.8
2019-01-25T04:12:47.301Z,-2.86
2019-01-25T04:13:57.243Z,-2.83
2019-01-25T04:15:06.931Z,-2.83
2019-01-25T04:16:16.919Z,-2.93
2019-01-25T04:17:26.624Z,-2.78
2019-01-25T04:18:36.552Z,-2.83
2019-01-25T04:19:46.257Z,-2.86
2019-01-25T04:20:55.680Z,-2.8
2019-01-25T04:22:05.617Z,-2.8
2019-01-25T04:23:15.306Z,-2.8
2019-01-25T04:24:25.234Z,-2.8
2019-01-25T04:25:35.177Z,-2.81
2019-01-25T04:26:44.894Z,-2.81
2019-01-25T04:27:54.856Z,-2.8
2019-01-25T04:29:04.804Z,-2.84
2019-01-25T04:30:14.491Z,-2.9
2019-01-25T04:31:24.496Z,-2.93
2019-01-25T04:32:34.444Z,-2.98
2019-01-25T04:33:44.137Z,-2.94
2019-01-25T04:34:53.835Z,-2.9
2019-01-25T04:36:03.769Z,-2.87
2019-01-25T04:37:13.711Z,-2.9
2019-01-25T04:38:23.399Z,-2.96
2019-01-25T04:39:33.066Z,-2.86
2019-01-25T04:40:42.766Z,-2.78
2019-01-25T04:41:52.711Z,-2.75
2019-01-25T04:43:01.690Z,-2.96
2019-01-25T04:44:11.683Z,-2.91
2019-01-25T04:45:21.355Z,-2.9
2019-01-25T04:46:31.049Z,-2.94
2019-01-25T04:47:40.735Z,-2.93
2019-01-25T04:48:50.440Z,-2.81
2019-01-25T04:50:00.414Z,-2.8
2019-01-25T04:51:10.092Z,-2.78
2019-01-25T04:52:19.801Z,-2.84
2019-01-25T04:53:29.759Z,-2.8
2019-01-25T04:54:39.542Z,-2.83
2019-01-25T04:55:49.233Z,-2.78
2019-01-25T04:56:58.673Z,-2.99
2019-01-25T04:58:08.609Z,-3.04
2019-01-25T04:59:18.566Z,-2.96
2019-01-25T05:00:28.522Z,-2.99
2019-01-25T05:01:38.459Z,-2.96
2019-01-25T05:02:48.388Z,-2.99
2019-01-25T05:03:58.635Z,-3.19
2019-01-25T05:05:07.812Z,-3.22
2019-01-25T05:06:17.507Z,-3.19
2019-01-25T05:07:27.446Z,-3.25
2019-01-25T05:08:37.394Z,-3.17
2019-01-25T05:09:46.832Z,-3.2
2019-01-25T05:10:56.841Z,-3.26
2019-01-25T05:12:06.785Z,-3.27
2019-01-25T05:13:16.719Z,-3.32
2019-01-25T05:14:26.664Z,-3.37
2019-01-25T05:15:36.377Z,-3.4
2019-01-25T05:16:46.332Z,-3.25
2019-01-25T05:17:56.292Z,-3.32
2019-01-25T05:19:06.234Z,-3.27
2019-01-25T05:20:16.178Z,-3.23
2019-01-25T05:21:25.882Z,-3.29
2019-01-25T05:22:35.113Z,-3.29
2019-01-25T05:23:45.063Z,-3.29
2019-01-25T05:24:54.753Z,-3.23
2019-01-25T05:26:04.692Z,-3.26
2019-01-25T05:27:14.638Z,-3.22
2019-01-25T05:28:24.575Z,-3.27
2019-01-25T05:29:34.531Z,-3.25
2019-01-25T05:30:44.467Z,-3.3
2019-01-25T05:31:54.401Z,-3.26
2019-01-25T05:33:03.833Z,-3.25
2019-01-25T05:34:13.528Z,-3.17
2019-01-25T05:35:23.489Z,-3.22
2019-01-25T05:36:33.258Z,-3.17
2019-01-25T05:37:43.195Z,-3.17
2019-01-25T05:38:52.884Z,-3.26
2019-01-25T05:40:02.572Z,-3.14
2019-01-25T05:41:12.519Z,-3.2
2019-01-25T05:42:22.471Z,-3.25
2019-01-25T05:43:32.413Z,-3.15
2019-01-25T05:44:42.374Z,-3.25
2019-01-25T05:45:52.071Z,-3.17
2019-01-25T05:47:01.746Z,-3.17
2019-01-25T05:48:12.958Z,-3.14
2019-01-25T05:49:22.644Z,-3.23
2019-01-25T05:50:32.353Z,-3.26
2019-01-25T05:51:41.804Z,-3.12
2019-01-25T05:52:51.740Z,-3.29
2019-01-25T05:54:01.417Z,-3.23
2019-01-25T05:55:11.346Z,-3.23
2019-01-25T05:56:20.885Z,-3.25
2019-01-25T05:57:30.820Z,-3.25
2019-01-25T05:58:40.742Z,-3.26
2019-01-25T05:59:50.668Z,-3.27
2019-01-25T06:01:00.606Z,-3.23
2019-01-25T06:02:10.565Z,-3.32
2019-01-25T06:03:20.497Z,-3.33
2019-01-25T06:04:30.439Z,-3.26
2019-01-25T06:05:39.876Z,-3.4
2019-01-25T06:06:49.806Z,-3.38
2019-01-25T06:07:59.245Z,-3.4
2019-01-25T06:09:09.184Z,-3.37
2019-01-25T06:10:18.853Z,-3.36
2019-01-25T06:11:35.213Z,-3.38
2019-01-25T06:12:45.446Z,-3.37
2019-01-25T06:13:55.645Z,-3.38
2019-01-25T06:15:05.360Z,-3.43
2019-01-25T06:16:15.321Z,-3.3
2019-01-25T06:17:25.285Z,-3.38
2019-01-25T06:18:35.261Z,-3.32
2019-01-25T06:19:45.075Z,-3.4
2019-01-25T06:20:55.049Z,-3.29
2019-01-25T06:22:05.033Z,-3.27
2019-01-25T06:23:14.968Z,-3.32
2019-01-25T06:24:24.954Z,-3.27
2019-01-25T06:25:34.681Z,-3.3
2019-01-25T06:26:44.619Z,-3.37
2019-01-25T06:27:54.583Z,-3.36
2019-01-25T06:29:04.513Z,-3.37
2019-01-25T06:30:13.937Z,-3.43
2019-01-25T06:31:24.613Z,-3.56
2019-01-25T06:32:35.705Z,-3.43
2019-01-25T06:33:46.705Z,-3.46
2019-01-25T06:34:56.828Z,-3.48
2019-01-25T06:36:06.773Z,-3.47
2019-01-25T06:37:16.466Z,-3.47
2019-01-25T06:38:26.595Z,-3.41
2019-01-25T06:39:36.292Z,-3.46
2019-01-25T06:40:46.234Z,-3.47
2019-01-25T06:41:55.911Z,-3.47
2019-01-25T06:43:05.628Z,-3.51
2019-01-25T06:44:15.580Z,-3.55
2019-01-25T06:45:25.302Z,-3.59
2019-01-25T06:46:34.990Z,-3.46
2019-01-25T06:47:44.662Z,-3.51
2019-01-25T06:48:54.439Z,-3.43
2019-01-25T06:50:03.891Z,-3.46
2019-01-25T06:51:13.669Z,-3.51
2019-01-25T06:52:23.863Z,-3.55
2019-01-25T06:53:33.795Z,-3.59
2019-01-25T06:54:43.235Z,-3.56
2019-01-25T06:55:52.921Z,-3.58
2019-01-25T06:57:02.849Z,-3.64
2019-01-25T06:58:12.517Z,-3.59
2019-01-25T06:59:22.458Z,-3.64
2019-01-25T07:00:32.447Z,-3.59
2019-01-25T07:01:41.941Z,-3.56
2019-01-25T07:02:51.651Z,-3.56
2019-01-25T07:04:01.645Z,-3.56
2019-01-25T07:05:12.886Z,-3.53
2019-01-25T07:06:22.583Z,-3.59
2019-01-25T07:07:32.263Z,-3.62
2019-01-25T07:08:42.264Z,-3.58
2019-01-25T07:09:52.470Z,-3.58
2019-01-25T07:11:03.748Z,-3.61
2019-01-25T07:12:13.541Z,-3.62
2019-01-25T07:13:23.773Z,-3.64
2019-01-25T07:14:33.720Z,-3.58
2019-01-25T07:15:43.663Z,-3.65
2019-01-25T07:16:53.359Z,-3.58
2019-01-25T07:18:03.303Z,-3.5
2019-01-25T07:19:13.251Z,-3.62
2019-01-25T07:20:23.203Z,-3.59
2019-01-25T07:21:32.899Z,-3.56
2019-01-25T07:22:42.619Z,-3.59
2019-01-25T07:23:52.556Z,-3.59
2019-01-25T07:25:02.579Z,-3.55
2019-01-25T07:26:12.531Z,-3.53
2019-01-25T07:27:22.226Z,-3.51
2019-01-25T07:28:32.164Z,-3.56
2019-01-25T07:29:42.229Z,-3.51
2019-01-25T07:30:52.217Z,-3.51
2019-01-25T07:32:01.666Z,-3.58
2019-01-25T07:33:11.695Z,-3.65
2019-01-25T07:34:21.658Z,-3.56
2019-01-25T07:35:31.662Z,-3.69
2019-01-25T07:36:41.812Z,-3.71
2019-01-25T07:37:52.070Z,-3.69
2019-01-25T07:39:02.001Z,-3.62
2019-01-25T07:40:11.488Z,-3.61
2019-01-25T07:41:21.268Z,-3.56
2019-01-25T07:42:31.355Z,-3.56
2019-01-25T07:43:41.353Z,-3.56
2019-01-25T07:44:51.121Z,-3.62
2019-01-25T07:46:01.157Z,-3.55
2019-01-25T07:47:11.231Z,-3.59
2019-01-25T07:48:20.848Z,-3.51
2019-01-25T07:49:31.011Z,-3.56
2019-01-25T07:50:40.806Z,-3.66
2019-01-25T07:51:50.566Z,-3.65
2019-01-25T07:53:00.457Z,-3.64
2019-01-25T07:54:10.575Z,-3.69
2019-01-25T07:55:20.701Z,-3.68
2019-01-25T07:56:30.783Z,-3.66
2019-01-25T07:57:40.856Z,-3.64
2019-01-25T07:58:51.004Z,-3.71
2019-01-25T08:00:00.728Z,-3.66
2019-01-25T08:01:10.837Z,-3.65
2019-01-25T08:02:20.591Z,-3.68
2019-01-25T08:03:30.355Z,-3.65
2019-01-25T08:04:40.164Z,-3.64
2019-01-25T08:05:50.132Z,-3.69
2019-01-25T08:07:00.007Z,-3.69
2019-01-25T08:08:10.208Z,-3.65
2019-01-25T08:09:20.251Z,-3.69
2019-01-25T08:10:30.065Z,-3.62
2019-01-25T08:11:40.819Z,-3.69
2019-01-25T08:12:50.463Z,-3.66
2019-01-25T08:14:00.119Z,-3.64
2019-01-25T08:15:10.113Z,-3.64
2019-01-25T08:16:19.707Z,-3.61
2019-01-25T08:17:29.965Z,-3.59
2019-01-25T08:18:39.924Z,-3.64
2019-01-25T08:19:49.721Z,-3.56
2019-01-25T08:20:59.526Z,-3.65
2019-01-25T08:22:09.305Z,-3.56
2019-01-25T08:23:19.466Z,-3.5
2019-01-25T08:24:29.330Z,-3.47
2019-01-25T08:25:39.093Z,-3.46
2019-01-25T08:26:49.356Z,-3.36
2019-01-25T08:27:59.229Z,-3.44
2019-01-25T08:29:09.344Z,-3.5
2019-01-25T08:30:19.254Z,-3.46
2019-01-25T08:31:29.161Z,-3.55
2019-01-25T08:32:39.295Z,-3.41
2019-01-25T08:33:49.280Z,-3.43
2019-01-25T08:34:59.085Z,-3.51
2019-01-25T08:36:08.645Z,-3.5
2019-01-25T08:37:18.735Z,-3.41
2019-01-25T08:38:28.927Z,-3.37
2019-01-25T08:39:38.746Z,-3.44
2019-01-25T08:40:48.524Z,-3.4
2019-01-25T08:41:58.428Z,-3.43
2019-01-25T08:43:08.997Z,-3.4
2019-01-25T08:44:19.137Z,-3.38
2019-01-25T08:45:29.130Z,-3.26
2019-01-25T08:46:39.230Z,-3.26
2019-01-25T08:47:48.957Z,-3.22
2019-01-25T08:48:59.016Z,-3.09
2019-01-25T08:50:09.021Z,-3.01
2019-01-25T08:51:19.027Z,-2.99
2019-01-25T08:52:28.898Z,-2.96
2019-01-25T08:53:39.084Z,-2.96
2019-01-25T08:54:50.481Z,-2.93
2019-01-25T08:56:00.481Z,-2.91
2019-01-25T08:57:10.252Z,-2.93
2019-01-25T08:58:20.277Z,-2.81
2019-01-25T08:59:30.110Z,-2.86
2019-01-25T09:00:40.111Z,-2.78
2019-01-25T09:01:50.070Z,-2.76
2019-01-25T09:02:59.773Z,-2.69
2019-01-25T09:04:09.724Z,-2.75
2019-01-25T09:05:19.170Z,-2.75
2019-01-25T09:06:28.965Z,-2.76
2019-01-25T09:07:38.668Z,-2.75
2019-01-25T09:08:48.611Z,-2.72
2019-01-25T09:09:58.306Z,-2.65
2019-01-25T09:11:08.026Z,-2.66
2019-01-25T09:12:23.191Z,-2.66
2019-01-25T09:13:32.845Z,-2.61
2019-01-25T09:14:42.572Z,-2.51
2019-01-25T09:15:52.335Z,-2.5
2019-01-25T09:17:02.289Z,-2.66
2019-01-25T09:18:12.242Z,-2.58
2019-01-25T09:19:22.164Z,-2.5
2019-01-25T09:20:32.102Z,-2.48
2019-01-25T09:21:42.040Z,-2.5
2019-01-25T09:22:51.978Z,-2.47
2019-01-25T09:24:01.674Z,-2.32
2019-01-25T09:25:11.393Z,-2.14
2019-01-25T09:26:21.110Z,-2
2019-01-25T09:27:31.068Z,-1.82
2019-01-25T09:28:41.020Z,-1.57
2019-01-25T09:29:50.781Z,-1.36
2019-01-25T09:31:00.502Z,-1.11
2019-01-25T09:32:10.426Z,-1.01
2019-01-25T09:33:20.133Z,-0.99
2019-01-25T09:34:30.350Z,-0.82
2019-01-25T09:35:39.790Z,-0.85
2019-01-25T09:36:49.749Z,-0.81
2019-01-25T09:37:59.678Z,-0.89
2019-01-25T09:39:09.607Z,-0.81
2019-01-25T09:40:19.544Z,-0.64
2019-01-25T09:41:29.480Z,-0.53
2019-01-25T09:42:39.177Z,-0.41
2019-01-25T09:43:49.129Z,-0.36
2019-01-25T09:44:59.095Z,-0.27
2019-01-25T09:46:09.042Z,-0.15
2019-01-25T09:47:18.979Z,-0.18
2019-01-25T09:48:28.918Z,-0.18
2019-01-25T09:49:38.861Z,-0.24
2019-01-25T09:50:55.292Z,-0.12
2019-01-25T09:52:05.249Z,-0.33
2019-01-25T09:53:15.194Z,-0.27
2019-01-25T09:54:24.956Z,-0.2
2019-01-25T09:55:34.652Z,-0.15
2019-01-25T09:56:44.353Z,-0.33
2019-01-25T09:57:53.801Z,-0.41
2019-01-25T09:59:03.758Z,-0.53
2019-01-25T10:00:13.464Z,-0.6
2019-01-25T10:01:22.649Z,-0.64
2019-01-25T10:02:32.612Z,-0.82
2019-01-25T10:03:42.316Z,-0.81
2019-01-25T10:04:53.940Z,-0.78
2019-01-25T10:06:03.985Z,-0.74
2019-01-25T10:07:13.691Z,-0.75
2019-01-25T10:08:23.395Z,-0.66
2019-01-25T10:09:33.350Z,-0.77
2019-01-25T10:10:43.050Z,-0.64
2019-01-25T10:11:52.746Z,-0.67
2019-01-25T10:13:02.740Z,-0.85
2019-01-25T10:14:12.530Z,-0.97
2019-01-25T10:15:23.912Z,-1.09
2019-01-25T10:16:33.805Z,-1.09
2019-01-25T10:17:43.519Z,-1.18
2019-01-25T10:18:53.209Z,-1.38
2019-01-25T10:20:02.934Z,-1.51
2019-01-25T10:21:12.877Z,-1.64
2019-01-25T10:22:22.834Z,-1.71
2019-01-25T10:23:32.802Z,-1.63
2019-01-25T10:24:46.507Z,-1.58
2019-01-25T10:25:56.464Z,-1.46
2019-01-25T10:27:06.171Z,-1.33
2019-01-25T10:28:15.870Z,-1.5
2019-01-25T10:29:25.831Z,-1.66
2019-01-25T10:30:35.525Z,-1.78
2019-01-25T10:31:45.506Z,-1.72
2019-01-25T10:32:55.468Z,-1.82
2019-01-25T10:34:05.858Z,-1.86
2019-01-25T10:35:15.809Z,-1.84
2019-01-25T10:36:25.317Z,-1.84
2019-01-25T10:37:35.258Z,-1.84
2019-01-25T10:38:44.739Z,-1.94
2019-01-25T10:39:54.695Z,-2
2019-01-25T10:41:04.470Z,-2.1
2019-01-25T10:42:14.180Z,-2.07
2019-01-25T10:43:23.886Z,-2.11
2019-01-25T10:44:33.341Z,-2.14
2019-01-25T10:45:43.304Z,-2.04
2019-01-25T10:46:54.829Z,-1.96
2019-01-25T10:48:04.862Z,-1.99
2019-01-25T10:49:14.813Z,-1.92
2019-01-25T10:50:24.535Z,-1.94
2019-01-25T10:51:34.287Z,-1.87
2019-01-25T10:52:44.106Z,-1.92
2019-01-25T10:53:54.125Z,-1.96
2019-01-25T10:55:04.104Z,-2.04
2019-01-25T10:56:14.062Z,-1.96
2019-01-25T10:57:23.765Z,-1.99
2019-01-25T10:58:33.721Z,-2
2019-01-25T10:59:43.685Z,-2
2019-01-25T11:00:53.582Z,-1.94
2019-01-25T11:02:03.532Z,-1.96
2019-01-25T11:03:13.245Z,-1.9
2019-01-25T11:04:22.446Z,-1.96
2019-01-25T11:05:32.410Z,-1.96
2019-01-25T11:06:41.880Z,-2
2019-01-25T11:07:51.842Z,-2
2019-01-25T11:09:01.576Z,-2
2019-01-25T11:10:11.308Z,-1.96
2019-01-25T11:11:21.274Z,-1.99
2019-01-25T11:12:31.273Z,-2.11
2019-01-25T11:13:41.236Z,-1.97
2019-01-25T11:14:50.928Z,-1.96
2019-01-25T11:16:00.933Z,-1.76
2019-01-25T11:17:10.134Z,-1.53
2019-01-25T11:18:20.068Z,-1.38
2019-01-25T11:19:29.528Z,-1.12
2019-01-25T11:20:39.247Z,-1
2019-01-25T11:21:49.201Z,-0.87
2019-01-25T11:22:59.200Z,-0.7
2019-01-25T11:24:12.671Z,-0.67
2019-01-25T11:25:22.370Z,-0.46
2019-01-25T11:26:32.357Z,-0.49
2019-01-25T11:27:42.093Z,-0.6
2019-01-25T11:28:52.056Z,-0.66
2019-01-25T11:30:01.764Z,-0.49
2019-01-25T11:31:11.697Z,-0.38
2019-01-25T11:32:21.418Z,-0.36
2019-01-25T11:33:31.360Z,-0.39
2019-01-25T11:34:41.059Z,-0.57
2019-01-25T11:35:50.255Z,-0.78
2019-01-25T11:37:00.249Z,-0.78
2019-01-25T11:38:09.962Z,-1.06
2019-01-25T11:39:19.678Z,-1.03
2019-01-25T11:40:29.642Z,-1.09
2019-01-25T11:41:39.620Z,-1.17
2019-01-25T11:42:49.575Z,-1.24
2019-01-25T11:43:59.524Z,-1.36
2019-01-25T11:45:09.543Z,-1.42
2019-01-25T11:46:19.507Z,-1.56
2019-01-25T11:47:29.461Z,-1.54
2019-01-25T11:48:39.457Z,-1.56
2019-01-25T11:49:49.161Z,-1.45
2019-01-25T11:50:58.902Z,-1.33
2019-01-25T11:52:09.115Z,-1.42
2019-01-25T11:53:19.270Z,-1.39
2019-01-25T11:54:29.221Z,-1.58
2019-01-25T11:55:38.933Z,-1.53
2019-01-25T11:56:48.906Z,-1.58
2019-01-25T11:57:58.877Z,-1.43
2019-01-25T11:59:09.073Z,-1.46
2019-01-25T12:00:18.899Z,-1.53
2019-01-25T12:01:28.838Z,-1.45
2019-01-25T12:02:38.536Z,-1.56
2019-01-25T12:03:48.484Z,-1.61
2019-01-25T12:04:58.181Z,-1.51
2019-01-25T12:06:08.117Z,-1.45
2019-01-25T12:07:18.075Z,-1.33
2019-01-25T12:08:27.770Z,-1.38
2019-01-25T12:09:37.464Z,-1.39
2019-01-25T12:10:47.231Z,-1.33
2019-01-25T12:11:57.182Z,-1.45
2019-01-25T12:13:07.128Z,-1.38
2019-01-25T12:14:23.350Z,-1.54
2019-01-25T12:15:33.535Z,-1.6
2019-01-25T12:16:42.976Z,-1.72
2019-01-25T12:17:52.669Z,-1.68
2019-01-25T12:19:02.622Z,-1.74
2019-01-25T12:20:12.350Z,-1.63
2019-01-25T12:21:23.208Z,-1.58
2019-01-25T12:22:33.297Z,-1.72
2019-01-25T12:23:43.511Z,-1.84
2019-01-25T12:24:53.209Z,-1.92
2019-01-25T12:26:03.153Z,-2
2019-01-25T12:27:13.087Z,-2.02
2019-01-25T12:28:23.057Z,-2.05
2019-01-25T12:29:33.233Z,-2.08
2019-01-25T12:30:43.253Z,-2.02
2019-01-25T12:31:52.691Z,-1.97
2019-01-25T12:33:02.395Z,-1.97
2019-01-25T12:34:12.451Z,-1.96
2019-01-25T12:35:22.618Z,-2.08
2019-01-25T12:36:32.523Z,-2.08
2019-01-25T12:37:41.768Z,-2
2019-01-25T12:38:51.722Z,-2.13
2019-01-25T12:40:01.724Z,-2.13
2019-01-25T12:41:11.804Z,-2.1
2019-01-25T12:42:21.753Z,-2.13
2019-01-25T12:43:31.710Z,-2.13
2019-01-25T12:44:41.655Z,-2.15
2019-01-25T12:45:54.803Z,-2.13
2019-01-25T12:47:04.795Z,-2.17
2019-01-25T12:48:14.747Z,-2.13
2019-01-25T12:49:24.691Z,-2.08
2019-01-25T12:50:34.404Z,-2.04
2019-01-25T12:51:44.794Z,-2.05
2019-01-25T12:52:54.619Z,-2.02
2019-01-25T12:54:04.577Z,-2.05
2019-01-25T12:55:14.544Z,-2.02
2019-01-25T12:56:24.516Z,-2.02
2019-01-25T12:57:33.956Z,-2.02
2019-01-25T12:58:44.014Z,-2
2019-01-25T12:59:53.706Z,-2.02
2019-01-25T13:01:03.634Z,-2.02
2019-01-25T13:02:13.860Z,-2.11
2019-01-25T13:03:23.901Z,-1.99
2019-01-25T13:04:33.338Z,-2.02
2019-01-25T13:05:43.464Z,-2
2019-01-25T13:06:53.414Z,-2
2019-01-25T13:08:03.099Z,-2.07
2019-01-25T13:09:13.085Z,-1.93
2019-01-25T13:10:23.111Z,-2.08
2019-01-25T13:11:33.354Z,-2
2019-01-25T13:12:43.039Z,-2.08
2019-01-25T13:13:52.979Z,-2.07
2019-01-25T13:15:02.956Z,-2.02
2019-01-25T13:16:12.903Z,-1.94
2019-01-25T13:17:22.626Z,-1.96
2019-01-25T13:18:32.407Z,-2.02
2019-01-25T13:19:42.357Z,-2
2019-01-25T13:20:52.403Z,-2.02
2019-01-25T13:22:02.090Z,-1.97
2019-01-25T13:23:12.043Z,-1.99
2019-01-25T13:24:21.984Z,-1.97
2019-01-25T13:25:32.081Z,-2
2019-01-25T13:26:41.790Z,-1.97
2019-01-25T13:27:51.568Z,-2.04
2019-01-25T13:29:01.643Z,-1.96
2019-01-25T13:30:11.536Z,-1.97
2019-01-25T13:31:21.708Z,-1.86
2019-01-25T13:32:31.775Z,-1.87
2019-01-25T13:33:41.822Z,-1.9
2019-01-25T13:34:51.877Z,-1.96
2019-01-25T13:36:01.916Z,-1.9
2019-01-25T13:37:11.698Z,-1.92
2019-01-25T13:38:21.759Z,-1.96
2019-01-25T13:39:31.453Z,-1.9
2019-01-25T13:40:41.399Z,-1.79
2019-01-25T13:41:51.350Z,-1.72
2019-01-25T13:43:01.044Z,-1.75
2019-01-25T13:44:10.738Z,-1.69
2019-01-25T13:45:20.177Z,-1.72
2019-01-25T13:46:30.127Z,-1.71
2019-01-25T13:47:40.061Z,-1.74
2019-01-25T13:48:49.750Z,-1.75
2019-01-25T13:49:59.442Z,-1.71
2019-01-25T13:51:10.544Z,-1.69
2019-01-25T13:52:20.231Z,-1.68
2019-01-25T13:53:29.666Z,-1.64
2019-01-25T13:54:39.348Z,-1.66
2019-01-25T13:55:49.294Z,-1.74
2019-01-25T13:56:59.017Z,-1.69
2019-01-25T13:58:08.453Z,-1.57
2019-01-25T13:59:18.400Z,-1.5
2019-01-25T14:00:28.411Z,-1.57
2019-01-25T14:01:41.157Z,-1.57
2019-01-25T14:02:51.139Z,-1.54
2019-01-25T14:04:01.140Z,-1.61
2019-01-25T14:05:10.878Z,-1.58
2019-01-25T14:06:20.587Z,-1.66
2019-01-25T14:07:30.528Z,-1.66
2019-01-25T14:08:40.495Z,-1.72
2019-01-25T14:09:50.435Z,-1.79
2019-01-25T14:11:00.441Z,-1.69
2019-01-25T14:12:11.128Z,-1.72
2019-01-25T14:13:20.849Z,-1.68
2019-01-25T14:14:30.796Z,-1.72
2019-01-25T14:15:40.742Z,-1.69
2019-01-25T14:16:50.440Z,-1.71
2019-01-25T14:18:00.458Z,-1.71
2019-01-25T14:19:10.428Z,-1.76
2019-01-25T14:20:25.550Z,-1.69
2019-01-25T14:21:34.999Z,-1.89
2019-01-25T14:22:44.712Z,-1.81
2019-01-25T14:23:54.652Z,-1.89
2019-01-25T14:25:04.591Z,-2.07
2019-01-25T14:26:14.042Z,-2
2019-01-25T14:27:23.478Z,-2.13
2019-01-25T14:28:33.185Z,-2.13
2019-01-25T14:29:42.897Z,-2.17
2019-01-25T14:30:52.838Z,-2.33
2019-01-25T14:32:02.531Z,-2.26
2019-01-25T14:33:13.376Z,-2.39
2019-01-25T14:34:23.074Z,-2.26
2019-01-25T14:35:33.033Z,-2.42
2019-01-25T14:36:42.731Z,-2.34
2019-01-25T14:37:52.696Z,-2.47
2019-01-25T14:39:02.647Z,-2.44
2019-01-25T14:40:12.379Z,-2.36
2019-01-25T14:41:22.329Z,-2.33
2019-01-25T14:42:32.275Z,-2.37
2019-01-25T14:43:42.217Z,-2.23
2019-01-25T14:44:51.932Z,-2.33
2019-01-25T14:46:01.886Z,-2.36
2019-01-25T14:47:11.904Z,-2.25
2019-01-25T14:48:21.842Z,-2.37
2019-01-25T14:49:31.549Z,-2.52
2019-01-25T14:50:41.255Z,-2.48
2019-01-25T14:51:51.270Z,-2.48
2019-01-25T14:53:01.248Z,-2.51
2019-01-25T14:54:10.943Z,-2.51
2019-01-25T14:55:20.881Z,-2.45
2019-01-25T14:56:30.313Z,-2.42
2019-01-25T14:57:40.266Z,-2.52
2019-01-25T14:58:49.949Z,-2.51
2019-01-25T14:59:59.641Z,-2.5
2019-01-25T15:01:09.599Z,-2.51
2019-01-25T15:02:19.361Z,-2.45
2019-01-25T15:03:29.071Z,-2.5
2019-01-25T15:04:38.746Z,-2.45